sensor_id;sensor_type;location;lat;lon;timestamp;P1;durP1;ratioP1;P2;durP2;ratioP2
13959;SDS011;7052;51.050;3.716;2023-06-05T00:01:32;7.35;;;4.10;;
13959;SDS011;7052;51.050;3.716;2023-06-05T00:04:52;6.63;;;3.70;;
13959;SDS011;7052;51.050;3.716;2023-06-05T00:07:19;8.00;;;3.90;;
13959;SDS011;7052;51.050;3.716;2023-06-05T00:09:46;7.97;;;4.28;;
13959;SDS011;7052;51.050;3.716;2023-06-05T00:12:13;8.73;;;4.40;;
13959;SDS011;7052;51.050;3.716;2023-06-05T00:14:42;9.60;;;4.30;;
13959;SDS011;7052;51.050;3.716;2023-06-05T00:17:09;5.30;;;3.83;;
13959;SDS011;7052;51.050;3.716;2023-06-05T00:19:37;5.82;;;3.88;;
13959;SDS011;7052;51.050;3.716;2023-06-05T00:22:06;6.85;;;4.40;;
13959;SDS011;7052;51.050;3.716;2023-06-05T00:24:33;7.72;;;4.40;;
13959;SDS011;7052;51.050;3.716;2023-06-05T00:27:00;7.75;;;4.25;;
13959;SDS011;7052;51.050;3.716;2023-06-05T00:29:26;6.73;;;4.20;;
13959;SDS011;7052;51.050;3.716;2023-06-05T00:31:54;5.00;;;3.95;;
13959;SDS011;7052;51.050;3.716;2023-06-05T00:34:21;5.65;;;4.40;;
13959;SDS011;7052;51.050;3.716;2023-06-05T00:36:48;7.38;;;4.72;;
13959;SDS011;7052;51.050;3.716;2023-06-05T00:39:18;7.70;;;4.28;;
13959;SDS011;7052;51.050;3.716;2023-06-05T00:41:45;7.68;;;4.45;;
13959;SDS011;7052;51.050;3.716;2023-06-05T00:44:12;6.82;;;4.72;;
13959;SDS011;7052;51.050;3.716;2023-06-05T00:46:39;7.43;;;4.53;;
13959;SDS011;7052;51.050;3.716;2023-06-05T00:49:07;6.60;;;4.30;;
13959;SDS011;7052;51.050;3.716;2023-06-05T00:51:38;7.28;;;4.25;;
13959;SDS011;7052;51.050;3.716;2023-06-05T00:54:07;7.15;;;4.32;;
13959;SDS011;7052;51.050;3.716;2023-06-05T00:56:36;4.53;;;4.07;;
13959;SDS011;7052;51.050;3.716;2023-06-05T00:59:04;7.30;;;4.18;;
13959;SDS011;7052;51.050;3.716;2023-06-05T01:01:31;6.07;;;4.65;;
13959;SDS011;7052;51.050;3.716;2023-06-05T01:03:59;8.93;;;4.90;;
13959;SDS011;7052;51.050;3.716;2023-06-05T01:06:27;7.47;;;5.22;;
13959;SDS011;7052;51.050;3.716;2023-06-05T01:08:56;6.97;;;5.30;;
13959;SDS011;7052;51.050;3.716;2023-06-05T01:11:28;8.93;;;5.70;;
13959;SDS011;7052;51.050;3.716;2023-06-05T01:14:08;8.20;;;5.40;;
13959;SDS011;7052;51.050;3.716;2023-06-05T01:16:44;9.38;;;6.47;;
13959;SDS011;7052;51.050;3.716;2023-06-05T01:19:13;9.47;;;6.43;;
13959;SDS011;7052;51.050;3.716;2023-06-05T01:21:41;10.38;;;6.80;;
13959;SDS011;7052;51.050;3.716;2023-06-05T01:24:10;7.50;;;6.40;;
13959;SDS011;7052;51.050;3.716;2023-06-05T01:26:39;9.77;;;6.70;;
13959;SDS011;7052;51.050;3.716;2023-06-05T01:29:19;9.10;;;6.67;;
13959;SDS011;7052;51.050;3.716;2023-06-05T01:31:55;9.30;;;7.00;;
13959;SDS011;7052;51.050;3.716;2023-06-05T01:34:26;10.30;;;7.55;;
13959;SDS011;7052;51.050;3.716;2023-06-05T01:36:56;12.63;;;8.17;;
13959;SDS011;7052;51.050;3.716;2023-06-05T01:39:25;13.20;;;8.50;;
13959;SDS011;7052;51.050;3.716;2023-06-05T01:41:54;9.60;;;8.40;;
13959;SDS011;7052;51.050;3.716;2023-06-05T01:44:22;12.48;;;8.85;;
13959;SDS011;7052;51.050;3.716;2023-06-05T01:46:50;10.45;;;7.88;;
13959;SDS011;7052;51.050;3.716;2023-06-05T01:49:18;10.73;;;8.70;;
13959;SDS011;7052;51.050;3.716;2023-06-05T01:51:46;12.43;;;9.45;;
13959;SDS011;7052;51.050;3.716;2023-06-05T01:54:13;12.10;;;8.95;;
13959;SDS011;7052;51.050;3.716;2023-06-05T01:56:43;11.57;;;9.43;;
13959;SDS011;7052;51.050;3.716;2023-06-05T01:59:13;10.90;;;8.90;;
13959;SDS011;7052;51.050;3.716;2023-06-05T02:01:41;11.13;;;8.75;;
13959;SDS011;7052;51.050;3.716;2023-06-05T02:04:09;12.03;;;9.77;;
13959;SDS011;7052;51.050;3.716;2023-06-05T02:06:36;12.55;;;9.98;;
13959;SDS011;7052;51.050;3.716;2023-06-05T02:09:08;14.45;;;10.32;;
13959;SDS011;7052;51.050;3.716;2023-06-05T02:11:37;15.37;;;10.57;;
13959;SDS011;7052;51.050;3.716;2023-06-05T02:14:06;16.07;;;10.60;;
13959;SDS011;7052;51.050;3.716;2023-06-05T02:16:34;18.57;;;11.20;;
13959;SDS011;7052;51.050;3.716;2023-06-05T02:19:03;14.87;;;10.43;;
13959;SDS011;7052;51.050;3.716;2023-06-05T02:21:30;12.40;;;10.30;;
13959;SDS011;7052;51.050;3.716;2023-06-05T02:23:58;13.97;;;10.63;;
13959;SDS011;7052;51.050;3.716;2023-06-05T02:26:25;13.80;;;9.57;;
13959;SDS011;7052;51.050;3.716;2023-06-05T02:28:52;12.80;;;9.52;;
13959;SDS011;7052;51.050;3.716;2023-06-05T02:31:22;14.80;;;10.33;;
13959;SDS011;7052;51.050;3.716;2023-06-05T02:33:51;13.97;;;9.53;;
13959;SDS011;7052;51.050;3.716;2023-06-05T02:36:21;13.93;;;10.67;;
13959;SDS011;7052;51.050;3.716;2023-06-05T02:38:49;12.40;;;9.80;;
13959;SDS011;7052;51.050;3.716;2023-06-05T02:41:17;12.57;;;10.27;;
13959;SDS011;7052;51.050;3.716;2023-06-05T02:43:47;14.10;;;10.50;;
13959;SDS011;7052;51.050;3.716;2023-06-05T02:46:17;12.13;;;8.77;;
13959;SDS011;7052;51.050;3.716;2023-06-05T02:48:47;13.10;;;9.00;;
13959;SDS011;7052;51.050;3.716;2023-06-05T02:51:14;12.80;;;8.97;;
13959;SDS011;7052;51.050;3.716;2023-06-05T02:53:43;15.67;;;10.10;;
13959;SDS011;7052;51.050;3.716;2023-06-05T02:56:10;12.30;;;9.23;;
13959;SDS011;7052;51.050;3.716;2023-06-05T02:58:38;14.67;;;9.40;;
13959;SDS011;7052;51.050;3.716;2023-06-05T03:01:09;13.27;;;10.30;;
13959;SDS011;7052;51.050;3.716;2023-06-05T03:03:36;15.27;;;10.90;;
13959;SDS011;7052;51.050;3.716;2023-06-05T03:06:07;12.80;;;9.63;;
13959;SDS011;7052;51.050;3.716;2023-06-05T03:08:34;13.83;;;9.73;;
13959;SDS011;7052;51.050;3.716;2023-06-05T03:11:02;11.50;;;8.90;;
13959;SDS011;7052;51.050;3.716;2023-06-05T03:13:30;10.57;;;7.97;;
13959;SDS011;7052;51.050;3.716;2023-06-05T03:15:59;14.43;;;8.60;;
13959;SDS011;7052;51.050;3.716;2023-06-05T03:18:26;10.80;;;7.77;;
13959;SDS011;7052;51.050;3.716;2023-06-05T03:20:53;10.57;;;8.20;;
13959;SDS011;7052;51.050;3.716;2023-06-05T03:23:25;11.30;;;8.00;;
13959;SDS011;7052;51.050;3.716;2023-06-05T03:25:54;13.60;;;7.87;;
13959;SDS011;7052;51.050;3.716;2023-06-05T03:28:23;12.87;;;8.80;;
13959;SDS011;7052;51.050;3.716;2023-06-05T03:30:50;17.00;;;9.30;;
13959;SDS011;7052;51.050;3.716;2023-06-05T03:33:17;15.37;;;9.63;;
13959;SDS011;7052;51.050;3.716;2023-06-05T03:35:44;17.30;;;10.23;;
13959;SDS011;7052;51.050;3.716;2023-06-05T03:38:12;14.57;;;10.27;;
13959;SDS011;7052;51.050;3.716;2023-06-05T03:40:41;18.60;;;11.13;;
13959;SDS011;7052;51.050;3.716;2023-06-05T03:43:08;21.00;;;11.00;;
13959;SDS011;7052;51.050;3.716;2023-06-05T03:45:36;16.07;;;10.53;;
13959;SDS011;7052;51.050;3.716;2023-06-05T03:48:05;17.47;;;10.20;;
13959;SDS011;7052;51.050;3.716;2023-06-05T03:50:34;20.57;;;11.47;;
13959;SDS011;7052;51.050;3.716;2023-06-05T03:53:03;20.40;;;10.70;;
13959;SDS011;7052;51.050;3.716;2023-06-05T03:55:30;13.27;;;9.60;;
13959;SDS011;7052;51.050;3.716;2023-06-05T03:58:12;20.07;;;10.00;;
13959;SDS011;7052;51.050;3.716;2023-06-05T04:00:39;15.17;;;8.73;;
13959;SDS011;7052;51.050;3.716;2023-06-05T04:03:09;12.77;;;8.13;;
13959;SDS011;7052;51.050;3.716;2023-06-05T04:05:36;14.77;;;8.30;;
13959;SDS011;7052;51.050;3.716;2023-06-05T04:08:03;10.20;;;7.57;;
13959;SDS011;7052;51.050;3.716;2023-06-05T04:10:31;15.50;;;7.83;;
13959;SDS011;7052;51.050;3.716;2023-06-05T04:12:58;15.87;;;8.77;;
13959;SDS011;7052;51.050;3.716;2023-06-05T04:15:26;12.37;;;7.37;;
13959;SDS011;7052;51.050;3.716;2023-06-05T04:17:54;11.87;;;7.60;;
13959;SDS011;7052;51.050;3.716;2023-06-05T04:20:21;10.87;;;7.20;;
13959;SDS011;7052;51.050;3.716;2023-06-05T04:22:49;13.90;;;8.30;;
13959;SDS011;7052;51.050;3.716;2023-06-05T04:25:16;17.27;;;7.53;;
13959;SDS011;7052;51.050;3.716;2023-06-05T04:27:44;10.07;;;7.00;;
13959;SDS011;7052;51.050;3.716;2023-06-05T04:30:12;11.07;;;7.93;;
13959;SDS011;7052;51.050;3.716;2023-06-05T04:32:41;10.17;;;7.73;;
13959;SDS011;7052;51.050;3.716;2023-06-05T04:35:08;10.73;;;7.80;;
13959;SDS011;7052;51.050;3.716;2023-06-05T04:37:37;10.93;;;8.60;;
13959;SDS011;7052;51.050;3.716;2023-06-05T04:40:06;10.82;;;9.13;;
13959;SDS011;7052;51.050;3.716;2023-06-05T04:42:35;16.37;;;9.03;;
13959;SDS011;7052;51.050;3.716;2023-06-05T04:45:03;11.30;;;8.37;;
13959;SDS011;7052;51.050;3.716;2023-06-05T04:47:33;10.73;;;8.70;;
13959;SDS011;7052;51.050;3.716;2023-06-05T04:50:03;9.53;;;7.50;;
13959;SDS011;7052;51.050;3.716;2023-06-05T04:52:32;9.13;;;7.90;;
13959;SDS011;7052;51.050;3.716;2023-06-05T04:55:01;11.47;;;7.13;;
13959;SDS011;7052;51.050;3.716;2023-06-05T04:57:29;10.87;;;7.77;;
13959;SDS011;7052;51.050;3.716;2023-06-05T04:59:56;9.90;;;6.73;;
13959;SDS011;7052;51.050;3.716;2023-06-05T05:02:25;10.87;;;7.13;;
13959;SDS011;7052;51.050;3.716;2023-06-05T05:04:52;11.67;;;7.50;;
13959;SDS011;7052;51.050;3.716;2023-06-05T05:07:20;11.73;;;7.33;;
13959;SDS011;7052;51.050;3.716;2023-06-05T05:09:51;9.80;;;7.43;;
13959;SDS011;7052;51.050;3.716;2023-06-05T05:12:18;12.32;;;7.40;;
13959;SDS011;7052;51.050;3.716;2023-06-05T05:14:45;14.07;;;9.10;;
13959;SDS011;7052;51.050;3.716;2023-06-05T05:17:12;16.13;;;9.43;;
13959;SDS011;7052;51.050;3.716;2023-06-05T05:19:44;10.38;;;8.23;;
13959;SDS011;7052;51.050;3.716;2023-06-05T05:22:11;13.03;;;8.17;;
13959;SDS011;7052;51.050;3.716;2023-06-05T05:24:40;14.07;;;7.87;;
13959;SDS011;7052;51.050;3.716;2023-06-05T05:27:08;12.97;;;7.50;;
13959;SDS011;7052;51.050;3.716;2023-06-05T05:29:35;8.97;;;7.83;;
13959;SDS011;7052;51.050;3.716;2023-06-05T05:32:03;9.07;;;7.47;;
13959;SDS011;7052;51.050;3.716;2023-06-05T05:34:31;11.10;;;7.50;;
13959;SDS011;7052;51.050;3.716;2023-06-05T05:36:58;10.70;;;6.97;;
13959;SDS011;7052;51.050;3.716;2023-06-05T05:39:26;11.03;;;7.20;;
13959;SDS011;7052;51.050;3.716;2023-06-05T05:41:54;9.53;;;7.00;;
13959;SDS011;7052;51.050;3.716;2023-06-05T05:44:21;8.45;;;7.50;;
13959;SDS011;7052;51.050;3.716;2023-06-05T05:46:49;10.10;;;7.27;;
13959;SDS011;7052;51.050;3.716;2023-06-05T05:49:16;18.97;;;7.87;;
13959;SDS011;7052;51.050;3.716;2023-06-05T05:51:44;11.13;;;7.37;;
13959;SDS011;7052;51.050;3.716;2023-06-05T05:54:13;11.40;;;7.47;;
13959;SDS011;7052;51.050;3.716;2023-06-05T05:56:40;11.30;;;7.18;;
13959;SDS011;7052;51.050;3.716;2023-06-05T05:59:10;11.55;;;7.28;;
13959;SDS011;7052;51.050;3.716;2023-06-05T06:01:37;10.95;;;6.28;;
13959;SDS011;7052;51.050;3.716;2023-06-05T06:04:04;7.18;;;5.93;;
13959;SDS011;7052;51.050;3.716;2023-06-05T06:06:31;9.48;;;6.25;;
13959;SDS011;7052;51.050;3.716;2023-06-05T06:08:59;9.23;;;6.07;;
13959;SDS011;7052;51.050;3.716;2023-06-05T06:11:27;7.78;;;5.75;;
13959;SDS011;7052;51.050;3.716;2023-06-05T06:13:54;7.90;;;6.10;;
13959;SDS011;7052;51.050;3.716;2023-06-05T06:16:22;7.45;;;5.85;;
13959;SDS011;7052;51.050;3.716;2023-06-05T06:18:50;7.60;;;5.72;;
13959;SDS011;7052;51.050;3.716;2023-06-05T06:21:17;6.75;;;6.05;;
13959;SDS011;7052;51.050;3.716;2023-06-05T06:23:45;10.35;;;6.32;;
13959;SDS011;7052;51.050;3.716;2023-06-05T06:26:13;9.73;;;6.13;;
13959;SDS011;7052;51.050;3.716;2023-06-05T06:28:40;8.95;;;6.07;;
13959;SDS011;7052;51.050;3.716;2023-06-05T06:31:09;6.88;;;5.55;;
13959;SDS011;7052;51.050;3.716;2023-06-05T06:33:38;9.02;;;5.78;;
13959;SDS011;7052;51.050;3.716;2023-06-05T06:36:05;10.05;;;6.30;;
13959;SDS011;7052;51.050;3.716;2023-06-05T06:38:33;10.27;;;5.80;;
13959;SDS011;7052;51.050;3.716;2023-06-05T06:41:01;8.95;;;5.93;;
13959;SDS011;7052;51.050;3.716;2023-06-05T06:43:28;12.75;;;5.80;;
13959;SDS011;7052;51.050;3.716;2023-06-05T06:45:55;8.18;;;5.15;;
13959;SDS011;7052;51.050;3.716;2023-06-05T06:48:25;7.53;;;5.70;;
13959;SDS011;7052;51.050;3.716;2023-06-05T06:50:53;6.93;;;5.82;;
13959;SDS011;7052;51.050;3.716;2023-06-05T06:53:22;10.30;;;5.97;;
13959;SDS011;7052;51.050;3.716;2023-06-05T06:55:49;8.07;;;5.40;;
13959;SDS011;7052;51.050;3.716;2023-06-05T06:58:17;8.02;;;5.60;;
13959;SDS011;7052;51.050;3.716;2023-06-05T07:00:44;8.00;;;5.82;;
13959;SDS011;7052;51.050;3.716;2023-06-05T07:03:12;8.93;;;5.90;;
13959;SDS011;7052;51.050;3.716;2023-06-05T07:05:39;7.45;;;5.60;;
13959;SDS011;7052;51.050;3.716;2023-06-05T07:08:07;7.93;;;5.70;;
13959;SDS011;7052;51.050;3.716;2023-06-05T07:10:34;12.13;;;6.35;;
13959;SDS011;7052;51.050;3.716;2023-06-05T07:13:03;8.65;;;6.05;;
13959;SDS011;7052;51.050;3.716;2023-06-05T07:15:30;11.95;;;5.90;;
13959;SDS011;7052;51.050;3.716;2023-06-05T07:17:58;7.60;;;6.15;;
13959;SDS011;7052;51.050;3.716;2023-06-05T07:20:27;8.55;;;6.78;;
13959;SDS011;7052;51.050;3.716;2023-06-05T07:22:54;8.45;;;6.63;;
13959;SDS011;7052;51.050;3.716;2023-06-05T07:25:23;10.02;;;7.38;;
13959;SDS011;7052;51.050;3.716;2023-06-05T07:27:50;11.48;;;6.88;;
13959;SDS011;7052;51.050;3.716;2023-06-05T07:30:17;8.35;;;7.35;;
13959;SDS011;7052;51.050;3.716;2023-06-05T07:32:44;16.38;;;8.63;;
13959;SDS011;7052;51.050;3.716;2023-06-05T07:35:12;9.38;;;7.15;;
13959;SDS011;7052;51.050;3.716;2023-06-05T07:37:41;11.85;;;7.43;;
13959;SDS011;7052;51.050;3.716;2023-06-05T07:40:08;10.52;;;7.57;;
13959;SDS011;7052;51.050;3.716;2023-06-05T07:42:37;9.02;;;6.40;;
13959;SDS011;7052;51.050;3.716;2023-06-05T07:45:05;12.88;;;6.30;;
13959;SDS011;7052;51.050;3.716;2023-06-05T07:47:33;10.27;;;6.13;;
13959;SDS011;7052;51.050;3.716;2023-06-05T07:50:01;9.32;;;5.55;;
13959;SDS011;7052;51.050;3.716;2023-06-05T07:52:30;8.18;;;6.15;;
13959;SDS011;7052;51.050;3.716;2023-06-05T07:54:58;10.95;;;6.82;;
13959;SDS011;7052;51.050;3.716;2023-06-05T07:57:25;9.98;;;7.13;;
13959;SDS011;7052;51.050;3.716;2023-06-05T07:59:55;19.23;;;9.48;;
13959;SDS011;7052;51.050;3.716;2023-06-05T08:02:22;15.25;;;9.20;;
13959;SDS011;7052;51.050;3.716;2023-06-05T08:04:50;15.30;;;7.63;;
13959;SDS011;7052;51.050;3.716;2023-06-05T08:07:17;10.40;;;6.00;;
13959;SDS011;7052;51.050;3.716;2023-06-05T08:09:44;10.73;;;7.30;;
13959;SDS011;7052;51.050;3.716;2023-06-05T08:12:11;11.65;;;7.05;;
13959;SDS011;7052;51.050;3.716;2023-06-05T08:14:38;11.50;;;8.05;;
13959;SDS011;7052;51.050;3.716;2023-06-05T08:17:06;15.30;;;8.50;;
13959;SDS011;7052;51.050;3.716;2023-06-05T08:19:37;18.48;;;9.02;;
13959;SDS011;7052;51.050;3.716;2023-06-05T08:22:05;17.23;;;8.88;;
13959;SDS011;7052;51.050;3.716;2023-06-05T08:24:32;14.73;;;8.50;;
13959;SDS011;7052;51.050;3.716;2023-06-05T08:26:59;12.40;;;8.77;;
13959;SDS011;7052;51.050;3.716;2023-06-05T08:29:26;13.45;;;8.40;;
13959;SDS011;7052;51.050;3.716;2023-06-05T08:31:54;14.57;;;8.45;;
13959;SDS011;7052;51.050;3.716;2023-06-05T08:34:22;16.67;;;7.75;;
13959;SDS011;7052;51.050;3.716;2023-06-05T08:36:50;9.15;;;7.85;;
13959;SDS011;7052;51.050;3.716;2023-06-05T08:39:18;10.85;;;8.15;;
13959;SDS011;7052;51.050;3.716;2023-06-05T08:41:45;16.48;;;7.95;;
13959;SDS011;7052;51.050;3.716;2023-06-05T08:44:17;15.07;;;8.27;;
13959;SDS011;7052;51.050;3.716;2023-06-05T08:46:45;11.20;;;8.00;;
13959;SDS011;7052;51.050;3.716;2023-06-05T08:49:13;13.10;;;8.27;;
13959;SDS011;7052;51.050;3.716;2023-06-05T08:51:45;12.90;;;8.15;;
13959;SDS011;7052;51.050;3.716;2023-06-05T08:54:16;16.60;;;8.75;;
13959;SDS011;7052;51.050;3.716;2023-06-05T08:56:45;14.52;;;8.85;;
13959;SDS011;7052;51.050;3.716;2023-06-05T08:59:14;14.20;;;8.40;;
13959;SDS011;7052;51.050;3.716;2023-06-05T09:01:43;14.73;;;8.35;;
13959;SDS011;7052;51.050;3.716;2023-06-05T09:04:13;11.80;;;6.88;;
13959;SDS011;7052;51.050;3.716;2023-06-05T09:06:40;11.63;;;7.43;;
13959;SDS011;7052;51.050;3.716;2023-06-05T09:09:17;11.77;;;7.65;;
13959;SDS011;7052;51.050;3.716;2023-06-05T09:11:45;15.23;;;7.97;;
13959;SDS011;7052;51.050;3.716;2023-06-05T09:14:12;10.90;;;7.75;;
13959;SDS011;7052;51.050;3.716;2023-06-05T09:16:40;16.50;;;7.47;;
13959;SDS011;7052;51.050;3.716;2023-06-05T09:19:08;15.20;;;8.27;;
13959;SDS011;7052;51.050;3.716;2023-06-05T09:21:36;17.55;;;7.55;;
13959;SDS011;7052;51.050;3.716;2023-06-05T09:24:12;12.30;;;7.18;;
13959;SDS011;7052;51.050;3.716;2023-06-05T09:26:48;18.00;;;9.13;;
13959;SDS011;7052;51.050;3.716;2023-06-05T09:29:22;14.43;;;7.35;;
13959;SDS011;7052;51.050;3.716;2023-06-05T09:31:50;14.20;;;6.70;;
13959;SDS011;7052;51.050;3.716;2023-06-05T09:34:25;8.98;;;5.88;;
13959;SDS011;7052;51.050;3.716;2023-06-05T09:36:55;9.43;;;6.50;;
13959;SDS011;7052;51.050;3.716;2023-06-05T09:39:24;11.43;;;5.68;;
13959;SDS011;7052;51.050;3.716;2023-06-05T09:41:53;14.02;;;6.47;;
13959;SDS011;7052;51.050;3.716;2023-06-05T09:44:21;15.75;;;7.65;;
13959;SDS011;7052;51.050;3.716;2023-06-05T09:46:50;14.10;;;7.00;;
13959;SDS011;7052;51.050;3.716;2023-06-05T09:49:24;14.63;;;7.57;;
13959;SDS011;7052;51.050;3.716;2023-06-05T09:51:53;13.32;;;6.82;;
13959;SDS011;7052;51.050;3.716;2023-06-05T09:54:23;12.05;;;6.15;;
13959;SDS011;7052;51.050;3.716;2023-06-05T09:56:59;9.23;;;5.90;;
13959;SDS011;7052;51.050;3.716;2023-06-05T09:59:27;8.18;;;6.20;;
13959;SDS011;7052;51.050;3.716;2023-06-05T10:01:57;11.55;;;6.97;;
13959;SDS011;7052;51.050;3.716;2023-06-05T10:04:26;12.18;;;7.25;;
13959;SDS011;7052;51.050;3.716;2023-06-05T10:06:57;11.93;;;6.60;;
13959;SDS011;7052;51.050;3.716;2023-06-05T10:09:30;13.70;;;7.35;;
13959;SDS011;7052;51.050;3.716;2023-06-05T10:12:01;13.70;;;6.80;;
13959;SDS011;7052;51.050;3.716;2023-06-05T10:14:30;13.90;;;7.25;;
13959;SDS011;7052;51.050;3.716;2023-06-05T10:16:57;12.57;;;6.90;;
13959;SDS011;7052;51.050;3.716;2023-06-05T10:19:26;11.82;;;6.57;;
13959;SDS011;7052;51.050;3.716;2023-06-05T10:21:54;8.73;;;6.45;;
13959;SDS011;7052;51.050;3.716;2023-06-05T10:24:22;10.73;;;6.60;;
13959;SDS011;7052;51.050;3.716;2023-06-05T10:30:09;13.27;;;6.88;;
13959;SDS011;7052;51.050;3.716;2023-06-05T10:33:01;11.18;;;7.03;;
13959;SDS011;7052;51.050;3.716;2023-06-05T10:35:43;10.30;;;6.78;;
13959;SDS011;7052;51.050;3.716;2023-06-05T10:38:17;12.43;;;6.78;;
13959;SDS011;7052;51.050;3.716;2023-06-05T10:40:48;11.90;;;6.75;;
13959;SDS011;7052;51.050;3.716;2023-06-05T10:43:29;9.63;;;6.50;;
13959;SDS011;7052;51.050;3.716;2023-06-05T10:45:57;15.55;;;6.57;;
13959;SDS011;7052;51.050;3.716;2023-06-05T10:51:38;13.73;;;7.28;;
13959;SDS011;7052;51.050;3.716;2023-06-05T10:54:07;10.35;;;6.63;;
13959;SDS011;7052;51.050;3.716;2023-06-05T10:56:54;12.70;;;6.50;;
13959;SDS011;7052;51.050;3.716;2023-06-05T10:59:25;10.77;;;7.45;;
13959;SDS011;7052;51.050;3.716;2023-06-05T11:05:05;11.40;;;7.32;;
13959;SDS011;7052;51.050;3.716;2023-06-05T11:07:33;10.30;;;7.00;;
13959;SDS011;7052;51.050;3.716;2023-06-05T11:10:06;13.05;;;8.20;;
13959;SDS011;7052;51.050;3.716;2023-06-05T11:12:52;13.80;;;7.90;;
13959;SDS011;7052;51.050;3.716;2023-06-05T11:15:40;16.08;;;8.00;;
13959;SDS011;7052;51.050;3.716;2023-06-05T11:18:28;12.23;;;8.48;;
13959;SDS011;7052;51.050;3.716;2023-06-05T11:20:56;11.35;;;8.50;;
13959;SDS011;7052;51.050;3.716;2023-06-05T11:23:27;15.25;;;7.93;;
13959;SDS011;7052;51.050;3.716;2023-06-05T11:25:55;12.13;;;7.28;;
13959;SDS011;7052;51.050;3.716;2023-06-05T11:28:39;9.95;;;7.35;;
13959;SDS011;7052;51.050;3.716;2023-06-05T11:31:08;9.18;;;7.30;;
13959;SDS011;7052;51.050;3.716;2023-06-05T11:33:36;12.70;;;8.27;;
13959;SDS011;7052;51.050;3.716;2023-06-05T11:36:05;13.50;;;9.07;;
13959;SDS011;7052;51.050;3.716;2023-06-05T11:38:34;11.38;;;8.55;;
13959;SDS011;7052;51.050;3.716;2023-06-05T11:41:05;13.13;;;8.50;;
13959;SDS011;7052;51.050;3.716;2023-06-05T11:43:40;11.48;;;7.78;;
13959;SDS011;7052;51.050;3.716;2023-06-05T11:46:09;12.23;;;8.32;;
13959;SDS011;7052;51.050;3.716;2023-06-05T11:48:42;11.02;;;8.40;;
13959;SDS011;7052;51.050;3.716;2023-06-05T11:51:11;11.23;;;7.57;;
13959;SDS011;7052;51.050;3.716;2023-06-05T11:53:43;13.48;;;7.57;;
13959;SDS011;7052;51.050;3.716;2023-06-05T11:56:14;14.85;;;8.50;;
13959;SDS011;7052;51.050;3.716;2023-06-05T11:58:43;14.02;;;8.95;;
13959;SDS011;7052;51.050;3.716;2023-06-05T12:01:16;14.50;;;8.02;;
13959;SDS011;7052;51.050;3.716;2023-06-05T12:03:47;14.02;;;8.85;;
13959;SDS011;7052;51.050;3.716;2023-06-05T12:06:15;11.02;;;7.97;;
13959;SDS011;7052;51.050;3.716;2023-06-05T12:08:44;8.93;;;6.43;;
13959;SDS011;7052;51.050;3.716;2023-06-05T12:11:20;13.13;;;7.45;;
13959;SDS011;7052;51.050;3.716;2023-06-05T12:13:49;10.50;;;8.07;;
13959;SDS011;7052;51.050;3.716;2023-06-05T12:16:25;11.52;;;7.97;;
13959;SDS011;7052;51.050;3.716;2023-06-05T12:18:58;10.50;;;8.27;;
13959;SDS011;7052;51.050;3.716;2023-06-05T12:21:26;13.18;;;8.32;;
13959;SDS011;7052;51.050;3.716;2023-06-05T12:24:00;12.70;;;8.57;;
13959;SDS011;7052;51.050;3.716;2023-06-05T12:26:29;12.35;;;7.30;;
13959;SDS011;7052;51.050;3.716;2023-06-05T12:29:13;13.32;;;7.78;;
13959;SDS011;7052;51.050;3.716;2023-06-05T12:31:45;11.45;;;8.00;;
13959;SDS011;7052;51.050;3.716;2023-06-05T12:34:14;10.63;;;7.10;;
13959;SDS011;7052;51.050;3.716;2023-06-05T12:36:42;12.50;;;7.85;;
13959;SDS011;7052;51.050;3.716;2023-06-05T12:39:10;14.00;;;8.52;;
13959;SDS011;7052;51.050;3.716;2023-06-05T12:41:38;10.48;;;7.85;;
13959;SDS011;7052;51.050;3.716;2023-06-05T12:44:06;11.90;;;8.80;;
13959;SDS011;7052;51.050;3.716;2023-06-05T12:46:34;10.07;;;7.80;;
13959;SDS011;7052;51.050;3.716;2023-06-05T12:49:03;10.95;;;8.23;;
13959;SDS011;7052;51.050;3.716;2023-06-05T12:51:31;12.38;;;7.60;;
13959;SDS011;7052;51.050;3.716;2023-06-05T12:53:58;9.57;;;7.70;;
13959;SDS011;7052;51.050;3.716;2023-06-05T12:56:26;12.65;;;8.13;;
13959;SDS011;7052;51.050;3.716;2023-06-05T12:58:54;11.60;;;7.97;;
13959;SDS011;7052;51.050;3.716;2023-06-05T13:01:22;11.57;;;8.55;;
13959;SDS011;7052;51.050;3.716;2023-06-05T13:03:51;11.15;;;8.32;;
13959;SDS011;7052;51.050;3.716;2023-06-05T13:06:21;12.80;;;8.85;;
13959;SDS011;7052;51.050;3.716;2023-06-05T13:08:50;13.23;;;9.13;;
13959;SDS011;7052;51.050;3.716;2023-06-05T13:11:17;8.75;;;7.30;;
13959;SDS011;7052;51.050;3.716;2023-06-05T13:13:44;11.98;;;7.70;;
13959;SDS011;7052;51.050;3.716;2023-06-05T13:16:12;10.35;;;7.88;;
13959;SDS011;7052;51.050;3.716;2023-06-05T13:18:39;9.98;;;8.63;;
13959;SDS011;7052;51.050;3.716;2023-06-05T13:21:06;11.23;;;8.60;;
13959;SDS011;7052;51.050;3.716;2023-06-05T13:23:35;11.63;;;8.15;;
13959;SDS011;7052;51.050;3.716;2023-06-05T13:26:03;10.63;;;8.05;;
13959;SDS011;7052;51.050;3.716;2023-06-05T13:28:31;15.20;;;8.23;;
13959;SDS011;7052;51.050;3.716;2023-06-05T13:30:58;11.07;;;7.53;;
13959;SDS011;7052;51.050;3.716;2023-06-05T13:33:26;13.23;;;8.85;;
13959;SDS011;7052;51.050;3.716;2023-06-05T13:35:58;15.15;;;8.23;;
13959;SDS011;7052;51.050;3.716;2023-06-05T13:38:25;11.68;;;7.88;;
13959;SDS011;7052;51.050;3.716;2023-06-05T13:40:54;15.00;;;8.40;;
13959;SDS011;7052;51.050;3.716;2023-06-05T13:43:21;11.73;;;8.18;;
13959;SDS011;7052;51.050;3.716;2023-06-05T13:45:48;11.50;;;8.65;;
13959;SDS011;7052;51.050;3.716;2023-06-05T13:48:14;13.48;;;8.82;;
13959;SDS011;7052;51.050;3.716;2023-06-05T13:50:41;17.75;;;8.35;;
13959;SDS011;7052;51.050;3.716;2023-06-05T13:53:12;27.67;;;10.18;;
13959;SDS011;7052;51.050;3.716;2023-06-05T13:55:39;19.75;;;8.75;;
13959;SDS011;7052;51.050;3.716;2023-06-05T13:58:09;15.95;;;8.82;;
13959;SDS011;7052;51.050;3.716;2023-06-05T14:00:37;14.07;;;8.70;;
13959;SDS011;7052;51.050;3.716;2023-06-05T14:03:07;10.07;;;8.82;;
13959;SDS011;7052;51.050;3.716;2023-06-05T14:05:35;13.50;;;9.30;;
13959;SDS011;7052;51.050;3.716;2023-06-05T14:08:04;13.10;;;8.52;;
13959;SDS011;7052;51.050;3.716;2023-06-05T14:10:36;12.32;;;8.90;;
13959;SDS011;7052;51.050;3.716;2023-06-05T14:13:03;10.90;;;8.85;;
13959;SDS011;7052;51.050;3.716;2023-06-05T14:15:32;10.15;;;7.43;;
13959;SDS011;7052;51.050;3.716;2023-06-05T14:18:00;10.40;;;7.68;;
13959;SDS011;7052;51.050;3.716;2023-06-05T14:20:29;11.95;;;7.75;;
13959;SDS011;7052;51.050;3.716;2023-06-05T14:22:57;9.93;;;6.65;;
13959;SDS011;7052;51.050;3.716;2023-06-05T14:25:24;12.88;;;7.22;;
13959;SDS011;7052;51.050;3.716;2023-06-05T14:27:54;13.93;;;7.90;;
13959;SDS011;7052;51.050;3.716;2023-06-05T14:30:21;10.18;;;6.43;;
13959;SDS011;7052;51.050;3.716;2023-06-05T14:32:50;9.57;;;6.85;;
13959;SDS011;7052;51.050;3.716;2023-06-05T14:35:17;9.05;;;7.70;;
13959;SDS011;7052;51.050;3.716;2023-06-05T14:37:46;10.75;;;6.32;;
13959;SDS011;7052;51.050;3.716;2023-06-05T14:40:13;9.90;;;6.47;;
13959;SDS011;7052;51.050;3.716;2023-06-05T14:42:40;13.68;;;7.13;;
13959;SDS011;7052;51.050;3.716;2023-06-05T14:45:08;11.70;;;6.65;;
13959;SDS011;7052;51.050;3.716;2023-06-05T14:47:35;8.35;;;6.10;;
13959;SDS011;7052;51.050;3.716;2023-06-05T14:50:06;9.55;;;7.10;;
13959;SDS011;7052;51.050;3.716;2023-06-05T14:52:35;9.88;;;6.53;;
13959;SDS011;7052;51.050;3.716;2023-06-05T14:55:03;13.38;;;6.38;;
13959;SDS011;7052;51.050;3.716;2023-06-05T14:57:30;9.35;;;6.20;;
13959;SDS011;7052;51.050;3.716;2023-06-05T14:59:57;9.35;;;6.18;;
13959;SDS011;7052;51.050;3.716;2023-06-05T15:02:25;9.82;;;6.13;;
13959;SDS011;7052;51.050;3.716;2023-06-05T15:04:52;11.02;;;6.00;;
13959;SDS011;7052;51.050;3.716;2023-06-05T15:07:22;11.85;;;6.07;;
13959;SDS011;7052;51.050;3.716;2023-06-05T15:09:49;8.43;;;5.90;;
13959;SDS011;7052;51.050;3.716;2023-06-05T15:12:17;7.63;;;5.85;;